Ana Sayfa
METAR-TAF:

METAR-TAF

Havaalanları :

Kuveyt, Kuveyt

Enlem: 29-13N, Boylam: 047-59E, yükseklik: 55 m

Güncel hava durumu gözlemi

Rapor saat 05:00 UTC de 1 saat ve 13 dakika önce yapıldı.
Rüzgar batı/güneybatıdan 3 kt
Sıcaklık 8°C
Nem 66%
Basınç 1024 hPa
Görüş mesafesi: 8000 m

METAR: OKBK 280500Z 24003KT 8000 NSC 08/02 Q1024 NOSIG

Saat: 09:13 (06:13 UTC)

Tahmin

Rapor saat 04:45 UTC de 1 saat ve 28 dakika önce yapıldı.
Ayın 28'si saat 06 UTC'den ayın 29'si saat 12 UTC'ye kadar geçerli Tahmin
Rüzgar değişken yönden 3 kt
Görüş mesafesi: 7000 m

TAF: OKBK 280445Z 2806/2912 VRB03KT 7000 NSC

4.000'den fazla havaalanı için hava durumu gözlemleri ve tahminleri (METAR ve TAF raporları).

Kullanılabilir istasyonlar harita üzerinde sarı ve kırmızı noktalarla gösterilir.

İstasyonun adını görmek için fareyi noktanın üzerinde gezdirin.

Sonrasında hava gözlem ve tahminlerini görmek için tıklayın.

Haritayı değiştirmek için: yaklaştırmak için siyah artı işaretli yeşil düğmeye ve uzaklaştırmak için de eksi işaretli düğmeye hızla tıklayın; bitişik haritalar için yeşil okları kullanın.


METAR-TAF: